logo
Search for airport 
image banner adimage banner adimage banner ad
image banner ad

ED3001 - Ettelsberg

Located in , Germany

ICAO - , IATA -

Data provided by Airmate  

General information

Coordinates: N51°16'55" E8°35'58"
Elevation is 2607 feet MSL.
 
View others Airports in North Rhine-Westphalia

Operational data

Special qualification required
Current time UTC:
Current local time:
Weather at : EDLP - Paderborn/Lippstadt ( 37 km )
METAR: EDLP 221550Z 22007KT CAVOK 18/09 Q1003
TAF: TAF EDLP 221100Z 2212/2312 21011KT 9999 SCT030 BECMG 2215/2218 19006KT TEMPO 2219/2302 SHRA BKN020CB BECMG 2221/2224 23011KT
View NOTAMs / SUP AIP / TFR affecting this airport [VIEW]
Communications frequencies: [VIEW]

Runways:

Airport contact information

Address: Germany

Satellite view of ED3001